Time;durP1;ratioP1;P1;durP2;ratioP2;P2;SDS_P1;SDS_P2;PMS_P1;PMS_P2;Temp;Humidity;BMP_temperature;BMP_pressure;BME280_temperature;BME280_humidity;BME280_pressure;Samples;Min_cycle;Max_cycle;Signal;HPM_P1;HPM_P2
2021/08/07 00:00:50;;;;;;;0.60;0.60;;;23.70;57.60;;;;;;5063933;28;20051;-37
2021/08/07 00:03:18;;;;;;;0.63;0.52;;;23.70;57.50;;;;;;5063918;28;20036;-37
2021/08/07 00:05:45;;;;;;;0.45;0.45;;;23.60;57.50;;;;;;5064103;28;20072;-37
2021/08/07 00:08:11;;;;;;;0.55;0.50;;;23.60;57.40;;;;;;5063962;28;20043;-36
2021/08/07 00:10:37;;;;;;;0.60;0.55;;;23.60;58.00;;;;;;5083245;28;20032;-37
2021/08/07 00:13:03;;;;;;;0.50;0.47;;;23.60;58.20;;;;;;5083435;28;20032;-37
2021/08/07 00:15:30;;;;;;;0.50;0.50;;;23.60;58.60;;;;;;5079614;28;20092;-37
2021/08/07 00:17:56;;;;;;;0.80;0.73;;;23.60;58.40;;;;;;5063812;28;20056;-37
2021/08/07 00:20:22;;;;;;;0.60;0.50;;;23.60;58.60;;;;;;5063787;28;20069;-37
2021/08/07 00:22:48;;;;;;;0.82;0.80;;;23.60;58.50;;;;;;5063334;28;20044;-39
2021/08/07 00:25:14;;;;;;;0.57;0.57;;;23.60;58.40;;;;;;5063729;28;20029;-37
2021/08/07 00:27:41;;;;;;;0.50;0.50;;;23.60;58.60;;;;;;5063622;28;20774;-37
2021/08/07 00:30:08;;;;;;;0.60;0.60;;;23.60;58.70;;;;;;5063539;28;20031;-40
2021/08/07 00:32:34;;;;;;;0.65;0.60;;;23.60;59.00;;;;;;5063715;28;20033;-38
2021/08/07 00:35:00;;;;;;;0.70;0.57;;;23.60;59.00;;;;;;5063311;28;20044;-37
2021/08/07 00:37:26;;;;;;;0.60;0.60;;;23.70;59.20;;;;;;5063416;28;20029;-37
2021/08/07 00:39:53;;;;;;;0.85;0.85;;;23.70;59.50;;;;;;5076595;28;20041;-37
2021/08/07 00:42:19;;;;;;;0.80;0.80;;;23.70;59.60;;;;;;5083128;28;20040;-36
2021/08/07 00:44:45;;;;;;;0.95;0.70;;;23.70;59.70;;;;;;5082606;28;20496;-36
2021/08/07 00:47:11;;;;;;;0.55;0.55;;;23.70;59.90;;;;;;5065382;28;20041;-38
2021/08/07 00:49:38;;;;;;;1.00;0.80;;;23.70;60.00;;;;;;5063330;28;20040;-36
2021/08/07 00:52:05;;;;;;;0.93;0.77;;;23.70;60.20;;;;;;5063195;28;20020;-37
2021/08/07 00:54:31;;;;;;;1.02;0.70;;;23.80;60.40;;;;;;5061579;28;20033;-37
2021/08/07 00:56:58;;;;;;;0.80;0.80;;;23.80;60.70;;;;;;5061814;28;20059;-37
2021/08/07 00:59:24;;;;;;;0.73;0.73;;;23.80;60.80;;;;;;5076480;28;20054;-38
2021/08/07 01:02:02;;;;;;;0.70;0.63;;;23.80;60.90;;;;;;5083204;28;20035;-37
2021/08/07 01:04:31;;;;;;;0.95;0.85;;;23.80;61.10;;;;;;5081454;28;20048;-38
2021/08/07 01:07:30;;;;;;;1.20;1.10;;;23.80;61.10;;;;;;5079734;28;20032;-37
2021/08/07 01:10:05;;;;;;;0.88;0.75;;;23.90;61.30;;;;;;5069269;28;20025;-37
2021/08/07 01:12:40;;;;;;;0.90;0.90;;;23.90;61.40;;;;;;5061498;28;20549;-37
2021/08/07 01:15:08;;;;;;;1.05;0.95;;;23.90;61.50;;;;;;5061906;28;20068;-37
2021/08/07 01:17:34;;;;;;;1.00;0.90;;;23.90;61.50;;;;;;5081601;28;20016;-38
2021/08/07 01:20:25;;;;;;;1.00;0.90;;;23.90;61.50;;;;;;5081683;28;20029;-36
2021/08/07 01:23:18;;;;;;;0.85;0.75;;;23.90;61.60;;;;;;5081622;28;20065;-37
2021/08/07 01:25:51;;;;;;;1.10;1.00;;;24.00;61.80;;;;;;5081416;28;20033;-37
2021/08/07 01:28:17;;;;;;;0.82;0.80;;;24.00;61.90;;;;;;5082722;28;20027;-37
2021/08/07 01:30:43;;;;;;;0.85;0.82;;;24.00;61.90;;;;;;5081317;28;20027;-37
2021/08/07 01:33:10;;;;;;;1.47;1.10;;;24.00;62.00;;;;;;5081389;28;20028;-37
2021/08/07 01:35:36;;;;;;;2.35;1.80;;;24.00;62.10;;;;;;5081293;28;20012;-37
2021/08/07 01:38:02;;;;;;;1.13;1.02;;;24.00;62.10;;;;;;5081393;28;20531;-37
2021/08/07 01:40:28;;;;;;;1.08;0.98;;;24.00;62.20;;;;;;5062617;28;20549;-37
2021/08/07 01:42:54;;;;;;;1.20;1.10;;;24.00;62.30;;;;;;5062289;28;20029;-37
2021/08/07 01:45:20;;;;;;;1.40;1.00;;;24.10;62.40;;;;;;5064579;28;20508;-37
2021/08/07 01:48:02;;;;;;;1.27;1.10;;;24.10;62.50;;;;;;5082362;28;20024;-38
2021/08/07 01:50:52;;;;;;;1.30;1.00;;;24.10;62.60;;;;;;5081153;28;20051;-37
2021/08/07 01:53:22;;;;;;;1.23;0.95;;;24.10;62.60;;;;;;5081222;28;20025;-37
2021/08/07 01:56:05;;;;;;;1.10;0.95;;;24.10;62.60;;;;;;5082314;28;20048;-37
2021/08/07 01:58:33;;;;;;;1.30;1.20;;;24.10;62.60;;;;;;5081232;28;20025;-37
2021/08/07 02:01:00;;;;;;;1.30;1.20;;;24.10;62.70;;;;;;5082502;28;20028;-37
2021/08/07 02:03:27;;;;;;;1.20;1.10;;;24.10;62.70;;;;;;5082468;28;20016;-37
2021/08/07 02:05:54;;;;;;;1.33;1.20;;;24.10;62.80;;;;;;5080915;28;20040;-37
2021/08/07 02:08:20;;;;;;;1.40;1.20;;;24.10;62.80;;;;;;5080382;28;20153;-37
2021/08/07 02:10:47;;;;;;;1.52;1.30;;;24.20;62.80;;;;;;5062193;28;20025;-38
2021/08/07 02:13:17;;;;;;;1.30;1.20;;;24.20;62.90;;;;;;5062326;28;20692;-37
2021/08/07 02:15:45;;;;;;;2.47;1.38;;;24.20;63.00;;;;;;5068071;28;20033;-37
2021/08/07 02:18:13;;;;;;;1.42;1.23;;;24.20;63.70;;;;;;5081067;28;20025;-37
2021/08/07 02:20:40;;;;;;;1.20;1.10;;;24.20;63.10;;;;;;5080654;28;20067;-37
2021/08/07 02:23:06;;;;;;;1.27;1.17;;;24.20;63.20;;;;;;5081063;28;20032;-37
2021/08/07 02:25:32;;;;;;;1.30;1.20;;;24.20;63.20;;;;;;5081043;28;20496;-37
2021/08/07 02:27:58;;;;;;;1.23;1.08;;;24.20;63.20;;;;;;5082349;28;20270;-38
2021/08/07 02:30:25;;;;;;;1.40;1.30;;;24.20;63.30;;;;;;5080698;28;20552;-37
2021/08/07 02:32:51;;;;;;;1.50;1.40;;;24.20;63.30;;;;;;5080871;28;20039;-37
2021/08/07 02:35:17;;;;;;;1.80;1.48;;;24.20;63.40;;;;;;5082322;28;20033;-37
2021/08/07 02:37:43;;;;;;;1.20;1.10;;;24.20;63.40;;;;;;5080814;28;20473;-37
2021/08/07 02:40:10;;;;;;;2.00;1.58;;;24.30;63.50;;;;;;5082085;28;20051;-37
2021/08/07 02:42:36;;;;;;;1.90;1.48;;;24.30;63.50;;;;;;5080662;28;20115;-36
2021/08/07 02:45:04;;;;;;;1.92;1.67;;;24.30;63.50;;;;;;5080480;28;20052;-37
2021/08/07 02:47:30;;;;;;;1.60;1.50;;;24.30;63.50;;;;;;5062003;28;20041;-37
2021/08/07 02:49:56;;;;;;;1.55;1.45;;;24.30;63.50;;;;;;5060499;28;20104;-37
2021/08/07 02:52:22;;;;;;;2.63;1.48;;;24.30;63.50;;;;;;5063545;28;20064;-37
2021/08/07 02:54:49;;;;;;;1.67;1.50;;;24.30;63.60;;;;;;5063871;28;20025;-37
2021/08/07 02:57:16;;;;;;;1.70;1.60;;;24.30;63.60;;;;;;5044441;28;20026;-37
2021/08/07 02:59:42;;;;;;;1.95;1.52;;;24.30;63.60;;;;;;5064722;28;20141;-38
2021/08/07 03:02:08;;;;;;;1.27;1.17;;;24.30;63.60;;;;;;5047494;28;20036;-37
2021/08/07 03:04:34;;;;;;;1.67;1.50;;;24.30;63.70;;;;;;5065254;28;20066;-37
2021/08/07 03:07:00;;;;;;;1.60;1.50;;;24.30;63.70;;;;;;5069333;28;20035;-37
2021/08/07 03:09:26;;;;;;;1.67;1.40;;;24.30;63.70;;;;;;5085467;28;20025;-37
2021/08/07 03:11:52;;;;;;;1.50;1.40;;;24.30;63.70;;;;;;5085195;28;20032;-37
2021/08/07 03:14:19;;;;;;;1.92;1.42;;;24.30;63.70;;;;;;5082956;28;20036;-38
2021/08/07 03:16:45;;;;;;;1.90;1.48;;;24.30;63.70;;;;;;5069205;28;20087;-37
2021/08/07 03:19:11;;;;;;;1.40;1.30;;;24.30;63.70;;;;;;5065025;28;20017;-37
2021/08/07 03:21:37;;;;;;;2.22;1.60;;;24.30;63.80;;;;;;5064909;28;20052;-38
2021/08/07 03:24:04;;;;;;;1.80;1.50;;;24.30;63.80;;;;;;5064859;28;20041;-37
2021/08/07 03:26:30;;;;;;;1.90;1.40;;;24.30;63.90;;;;;;5063465;28;20061;-37
2021/08/07 03:28:56;;;;;;;1.83;1.70;;;24.30;63.80;;;;;;5065010;28;20033;-37
2021/08/07 03:31:22;;;;;;;1.53;1.43;;;24.30;63.80;;;;;;5064945;28;20128;-37
2021/08/07 03:33:48;;;;;;;1.60;1.50;;;24.30;63.90;;;;;;5064608;28;20021;-37
2021/08/07 03:36:14;;;;;;;3.33;1.67;;;24.30;63.90;;;;;;5064759;28;20028;-37
2021/08/07 03:38:41;;;;;;;2.20;1.77;;;24.30;64.00;;;;;;5064860;28;20029;-37
2021/08/07 03:41:07;;;;;;;2.25;1.73;;;24.30;64.00;;;;;;5064608;28;20086;-38
2021/08/07 03:43:33;;;;;;;1.85;1.52;;;24.30;64.70;;;;;;5064495;28;20039;-37
2021/08/07 03:45:59;;;;;;;2.58;1.50;;;24.30;64.00;;;;;;5072710;28;20040;-37
2021/08/07 03:48:25;;;;;;;2.13;1.58;;;24.30;64.40;;;;;;5084453;28;20025;-37
2021/08/07 03:50:51;;;;;;;1.42;1.33;;;24.30;64.00;;;;;;5084690;28;20035;-37
2021/08/07 03:53:17;;;;;;;1.80;1.60;;;24.30;64.00;;;;;;5084426;28;20027;-37
2021/08/07 03:55:43;;;;;;;1.42;1.30;;;24.30;64.00;;;;;;5076820;28;20036;-37
2021/08/07 03:58:10;;;;;;;1.77;1.67;;;24.30;64.00;;;;;;5064566;28;20021;-37
2021/08/07 04:00:36;;;;;;;1.67;1.58;;;24.30;64.00;;;;;;5064379;28;20086;-37
2021/08/07 04:03:02;;;;;;;1.55;1.45;;;24.30;64.00;;;;;;5064199;28;20033;-37
2021/08/07 04:05:28;;;;;;;1.50;1.40;;;24.30;64.00;;;;;;5064096;28;20029;-37
2021/08/07 04:08:05;;;;;;;1.70;1.60;;;24.30;64.00;;;;;;5064404;28;20078;-37
2021/08/07 04:10:32;;;;;;;1.60;1.50;;;24.30;63.90;;;;;;5064066;28;20032;-38
2021/08/07 04:12:58;;;;;;;3.00;1.58;;;24.30;64.00;;;;;;5063040;28;20029;-37
2021/08/07 04:15:24;;;;;;;1.97;1.77;;;24.30;64.00;;;;;;5065712;28;20032;-37
2021/08/07 04:17:50;;;;;;;1.97;1.87;;;24.30;64.10;;;;;;5084034;28;20082;-37
2021/08/07 04:20:16;;;;;;;2.00;1.83;;;24.30;64.20;;;;;;5083745;28;20016;-38
2021/08/07 04:22:43;;;;;;;2.10;1.90;;;24.30;64.20;;;;;;5084168;28;20043;-38
2021/08/07 04:25:09;;;;;;;1.95;1.77;;;24.30;64.20;;;;;;5080814;28;20032;-37
2021/08/07 04:27:36;;;;;;;1.75;1.65;;;24.30;64.10;;;;;;5063954;28;20029;-37
2021/08/07 04:30:03;;;;;;;1.73;1.63;;;24.30;64.10;;;;;;5063848;28;20035;-37
2021/08/07 04:32:29;;;;;;;1.98;1.60;;;24.30;64.10;;;;;;5063698;28;20025;-36
2021/08/07 04:34:55;;;;;;;2.65;1.75;;;24.30;64.10;;;;;;5063664;28;20040;-38
2021/08/07 04:37:21;;;;;;;1.92;1.80;;;24.30;64.10;;;;;;5063742;28;20036;-37
2021/08/07 04:39:47;;;;;;;1.70;1.60;;;24.30;64.10;;;;;;5063594;28;20029;-37
2021/08/07 04:42:17;;;;;;;1.55;1.45;;;24.30;64.10;;;;;;5063331;28;20029;-38
2021/08/07 04:44:43;;;;;;;1.50;1.40;;;24.30;64.20;;;;;;5063219;28;20032;-38
2021/08/07 04:47:09;;;;;;;1.85;1.67;;;24.30;64.20;;;;;;5081312;28;20032;-37
2021/08/07 04:49:35;;;;;;;2.03;1.83;;;24.30;64.20;;;;;;5083516;28;20020;-37
2021/08/07 04:52:01;;;;;;;1.88;1.77;;;24.30;64.20;;;;;;5083589;28;20027;-37
2021/08/07 04:54:28;;;;;;;1.75;1.60;;;24.30;64.20;;;;;;5083319;28;20444;-37
2021/08/07 04:56:54;;;;;;;1.97;1.80;;;24.30;64.20;;;;;;5079140;28;20113;-37
2021/08/07 04:59:20;;;;;;;2.20;1.80;;;24.30;64.20;;;;;;5083344;28;20055;-37
2021/08/07 05:01:46;;;;;;;2.08;1.88;;;24.30;64.30;;;;;;5083250;28;20389;-37
2021/08/07 05:04:12;;;;;;;1.95;1.75;;;24.30;64.20;;;;;;5083299;28;20021;-37
2021/08/07 05:06:44;;;;;;;1.55;1.42;;;24.30;64.20;;;;;;5083047;28;20064;-37
2021/08/07 05:09:10;;;;;;;2.10;1.90;;;24.30;64.30;;;;;;5081315;28;20063;-37
2021/08/07 05:11:36;;;;;;;2.40;1.80;;;24.30;64.50;;;;;;5064799;28;20031;-37
2021/08/07 05:14:03;;;;;;;2.33;1.90;;;24.30;64.60;;;;;;5061527;28;20025;-37
2021/08/07 05:16:29;;;;;;;2.40;2.20;;;24.30;64.70;;;;;;5074582;28;20033;-37
2021/08/07 05:18:55;;;;;;;2.30;1.97;;;24.30;64.60;;;;;;5065601;28;20029;-37
2021/08/07 05:21:21;;;;;;;2.20;1.90;;;24.30;64.60;;;;;;5062973;28;20513;-37
2021/08/07 05:23:48;;;;;;;1.80;1.70;;;24.30;64.60;;;;;;5063032;28;20051;-37
2021/08/07 05:26:14;;;;;;;2.20;1.67;;;24.30;64.60;;;;;;5062580;28;20118;-37
2021/08/07 05:28:41;;;;;;;2.10;1.90;;;24.30;64.50;;;;;;5063097;28;20056;-37
2021/08/07 05:31:07;;;;;;;2.15;1.95;;;24.30;64.50;;;;;;5062866;28;20767;-37
2021/08/07 05:33:33;;;;;;;1.92;1.73;;;24.30;64.40;;;;;;5063006;28;20048;-37
2021/08/07 05:35:59;;;;;;;1.87;1.77;;;24.30;64.40;;;;;;5062804;28;20040;-37
2021/08/07 05:38:25;;;;;;;2.13;1.92;;;24.30;64.40;;;;;;5062752;28;20024;-39
2021/08/07 05:40:51;;;;;;;2.03;1.85;;;24.30;64.40;;;;;;5062911;28;20107;-37
2021/08/07 05:43:17;;;;;;;2.20;2.00;;;24.20;64.40;;;;;;5062680;28;20025;-37
2021/08/07 05:45:44;;;;;;;1.83;1.73;;;24.20;64.20;;;;;;5068422;28;20079;-37
2021/08/07 05:48:10;;;;;;;2.70;2.13;;;24.20;64.20;;;;;;5082737;28;20070;-37
2021/08/07 05:50:36;;;;;;;2.65;2.10;;;24.20;64.20;;;;;;5082826;28;20080;-38
2021/08/07 05:53:02;;;;;;;2.10;1.90;;;24.20;64.20;;;;;;5082918;28;20083;-37
2021/08/07 05:55:28;;;;;;;2.08;1.88;;;24.20;64.10;;;;;;5076970;28;20021;-37
2021/08/07 05:57:55;;;;;;;2.55;2.08;;;24.20;64.10;;;;;;5062651;28;20551;-37
2021/08/07 06:00:21;;;;;;;2.22;2.00;;;24.20;64.00;;;;;;5060677;28;20028;-37
2021/08/07 06:02:47;;;;;;;1.80;1.70;;;24.20;64.00;;;;;;5041215;28;20037;-38
2021/08/07 06:05:13;;;;;;;2.17;1.98;;;24.20;64.00;;;;;;5042654;28;20030;-37
2021/08/07 06:07:39;;;;;;;2.05;1.77;;;24.20;64.10;;;;;;5042469;28;20033;-37
2021/08/07 06:10:06;;;;;;;2.13;1.92;;;24.20;64.10;;;;;;5042413;28;20029;-37
2021/08/07 06:12:32;;;;;;;2.47;1.95;;;24.20;64.20;;;;;;5042262;28;20033;-37
2021/08/07 06:14:58;;;;;;;2.05;1.85;;;24.20;64.30;;;;;;5042429;28;20518;-37
2021/08/07 06:17:24;;;;;;;3.13;2.20;;;24.20;64.30;;;;;;5082065;28;20095;-37
2021/08/07 06:19:51;;;;;;;2.05;1.85;;;24.20;64.30;;;;;;5082696;28;20032;-37
2021/08/07 06:22:17;;;;;;;3.53;2.15;;;24.20;64.40;;;;;;5082447;28;20098;-37
2021/08/07 06:24:43;;;;;;;2.80;1.90;;;24.20;64.40;;;;;;5082532;28;20033;-37
2021/08/07 06:27:09;;;;;;;3.25;2.20;;;24.20;64.60;;;;;;5065675;28;20045;-38
2021/08/07 06:29:35;;;;;;;2.00;1.85;;;24.10;64.50;;;;;;5066149;28;20025;-37
2021/08/07 06:32:01;;;;;;;1.80;1.70;;;24.10;64.50;;;;;;5066052;28;20025;-37
2021/08/07 06:34:28;;;;;;;2.00;1.77;;;24.10;64.40;;;;;;5066334;28;20055;-38
2021/08/07 06:36:54;;;;;;;2.60;2.05;;;24.10;64.30;;;;;;5065888;28;20098;-37
2021/08/07 06:39:20;;;;;;;2.00;1.80;;;24.10;64.20;;;;;;5066077;28;20025;-37
2021/08/07 06:41:46;;;;;;;2.55;1.95;;;24.10;64.10;;;;;;5065721;28;20124;-37
2021/08/07 06:44:12;;;;;;;2.20;2.00;;;24.10;64.10;;;;;;5065871;28;20029;-37
2021/08/07 06:46:38;;;;;;;2.00;1.80;;;24.10;64.10;;;;;;5078875;28;20061;-38
2021/08/07 06:49:04;;;;;;;2.45;2.20;;;24.10;64.10;;;;;;5085857;28;20054;-37
2021/08/07 06:51:31;;;;;;;2.78;1.90;;;24.10;64.00;;;;;;5085902;28;20508;-38
2021/08/07 06:53:57;;;;;;;2.22;2.00;;;24.10;64.10;;;;;;5085718;28;20096;-38
2021/08/07 06:56:23;;;;;;;2.08;1.88;;;24.10;64.10;;;;;;5074903;28;20039;-37
2021/08/07 06:58:49;;;;;;;2.00;1.70;;;24.10;64.10;;;;;;5065607;28;20028;-37
2021/08/07 07:01:15;;;;;;;2.25;1.90;;;24.10;64.10;;;;;;5065523;28;20037;-37
2021/08/07 07:03:41;;;;;;;2.17;1.98;;;24.10;64.90;;;;;;5065723;28;20051;-37
2021/08/07 07:06:07;;;;;;;3.45;2.00;;;24.10;64.20;;;;;;5065508;28;20124;-37
2021/08/07 07:08:34;;;;;;;3.35;2.00;;;24.10;64.10;;;;;;5070878;28;20063;-37
2021/08/07 07:11:00;;;;;;;2.03;1.83;;;24.10;64.20;;;;;;5085340;28;20048;-39
2021/08/07 07:13:26;;;;;;;2.28;2.08;;;24.10;64.20;;;;;;5085498;28;20048;-37
2021/08/07 07:15:52;;;;;;;2.08;1.88;;;24.10;64.20;;;;;;5076102;28;20037;-37
2021/08/07 07:18:18;;;;;;;2.35;1.85;;;24.10;64.20;;;;;;5065159;28;20025;-37
2021/08/07 07:20:44;;;;;;;2.10;1.90;;;24.10;64.10;;;;;;5063737;28;20045;-37
2021/08/07 07:23:12;;;;;;;2.22;2.03;;;24.10;64.10;;;;;;5065309;28;20021;-37
2021/08/07 07:25:39;;;;;;;2.15;1.92;;;24.10;64.10;;;;;;5058180;28;20095;-37
2021/08/07 07:28:05;;;;;;;1.98;1.77;;;24.00;64.10;;;;;;5044778;28;20029;-37
2021/08/07 07:30:31;;;;;;;2.13;1.77;;;24.00;64.10;;;;;;5043846;28;20048;-38
2021/08/07 07:32:58;;;;;;;2.25;2.05;;;24.00;64.10;;;;;;5045133;28;20061;-37
2021/08/07 07:35:25;;;;;;;1.80;1.70;;;24.00;64.10;;;;;;5044938;28;20013;-37
2021/08/07 07:37:51;;;;;;;2.03;1.83;;;24.00;64.10;;;;;;5044164;28;20036;-37
2021/08/07 07:40:17;;;;;;;2.20;2.00;;;24.00;64.10;;;;;;5044806;28;20025;-37
2021/08/07 07:42:43;;;;;;;3.55;2.00;;;24.00;64.20;;;;;;5044590;28;20037;-38
2021/08/07 07:45:10;;;;;;;1.70;1.60;;;24.00;64.90;;;;;;5047235;28;20021;-37
2021/08/07 07:47:36;;;;;;;2.08;1.88;;;24.00;64.20;;;;;;5084599;28;20044;-37
2021/08/07 07:50:02;;;;;;;2.10;1.92;;;24.00;64.20;;;;;;5084710;28;20032;-38
2021/08/07 07:52:28;;;;;;;2.22;1.88;;;24.00;64.20;;;;;;5083399;28;20024;-37
2021/08/07 07:54:55;;;;;;;2.05;1.85;;;24.00;64.20;;;;;;5083688;28;20025;-37
2021/08/07 07:57:21;;;;;;;2.42;2.05;;;24.00;64.20;;;;;;5064100;28;20674;-37
2021/08/07 07:59:47;;;;;;;2.25;1.80;;;24.00;64.20;;;;;;5064376;28;20028;-37
2021/08/07 08:02:14;;;;;;;2.38;2.17;;;24.00;64.20;;;;;;5064414;28;20224;-37
2021/08/07 08:04:40;;;;;;;2.10;1.90;;;24.00;65.00;;;;;;5064412;28;20125;-38
2021/08/07 08:07:06;;;;;;;2.13;1.83;;;24.00;64.30;;;;;;5064087;28;20041;-38
2021/08/07 08:09:33;;;;;;;2.15;1.75;;;24.00;64.30;;;;;;5064415;28;20044;-37
2021/08/07 08:11:59;;;;;;;2.60;2.13;;;24.00;64.30;;;;;;5064082;28;20043;-37
2021/08/07 08:14:25;;;;;;;2.20;2.00;;;24.00;64.30;;;;;;5064082;28;20035;-37
2021/08/07 08:16:51;;;;;;;1.70;1.60;;;24.00;64.30;;;;;;5079222;28;20056;-37
2021/08/07 08:19:17;;;;;;;2.20;2.00;;;24.00;64.30;;;;;;5083870;28;20020;-37
2021/08/07 08:21:43;;;;;;;1.90;1.75;;;24.00;64.40;;;;;;5083911;28;20619;-38
2021/08/07 08:24:10;;;;;;;2.05;1.88;;;23.90;64.30;;;;;;5083994;28;20117;-37
2021/08/07 08:26:36;;;;;;;2.03;1.90;;;23.90;64.30;;;;;;5068820;28;20045;-37
2021/08/07 08:29:02;;;;;;;2.72;2.15;;;23.90;64.30;;;;;;5063639;28;20029;-37
2021/08/07 08:31:28;;;;;;;2.30;2.10;;;23.90;64.40;;;;;;5063877;28;20051;-37
2021/08/07 08:33:54;;;;;;;1.77;1.67;;;23.90;64.40;;;;;;5063838;28;20056;-37
2021/08/07 08:36:20;;;;;;;2.20;2.00;;;23.90;64.40;;;;;;5063698;28;20032;-37
2021/08/07 08:38:46;;;;;;;2.97;2.00;;;23.90;64.50;;;;;;5078842;28;20100;-37
2021/08/07 08:41:13;;;;;;;2.35;1.85;;;23.90;64.50;;;;;;5063302;28;20033;-37
2021/08/07 08:43:39;;;;;;;2.53;1.85;;;23.90;64.50;;;;;;5063720;28;20024;-38
2021/08/07 08:46:05;;;;;;;2.33;1.73;;;23.90;64.50;;;;;;5070633;28;20649;-37
2021/08/07 08:48:31;;;;;;;2.00;1.80;;;23.90;64.50;;;;;;5081783;28;20043;-38
2021/08/07 08:50:57;;;;;;;2.28;1.98;;;23.90;64.50;;;;;;5082721;28;20078;-37
2021/08/07 08:53:23;;;;;;;1.80;1.70;;;23.90;65.30;;;;;;5083219;28;20054;-37
2021/08/07 08:55:49;;;;;;;2.00;1.80;;;23.90;64.60;;;;;;5073659;28;20017;-38
2021/08/07 08:58:16;;;;;;;2.42;2.03;;;23.90;64.60;;;;;;5063034;28;20097;-39
2021/08/07 09:00:43;;;;;;;2.03;1.83;;;23.90;64.60;;;;;;5079464;28;20050;-37
2021/08/07 09:03:09;;;;;;;1.80;1.70;;;23.90;65.30;;;;;;5083192;28;20028;-37
2021/08/07 09:05:35;;;;;;;2.47;2.28;;;23.90;64.60;;;;;;5075949;28;20121;-38
2021/08/07 09:08:01;;;;;;;1.80;1.60;;;23.90;64.60;;;;;;5063182;28;20107;-38
2021/08/07 09:10:28;;;;;;;2.17;1.90;;;23.90;64.60;;;;;;5063030;28;20021;-37
2021/08/07 09:13:03;;;;;;;;;;;23.90;64.70;;;;;;5063138;28;20033;-37
2021/08/07 09:15:37;;;;;;;2.00;1.90;;;23.90;64.60;;;;;;5066949;28;19908;-37
2021/08/07 09:18:14;;;;;;;2.33;2.10;;;23.90;64.70;;;;;;5082972;28;20029;-37
2021/08/07 09:20:42;;;;;;;2.28;1.90;;;23.80;64.60;;;;;;5081214;28;20397;-37
2021/08/07 09:23:08;;;;;;;2.03;1.83;;;23.80;64.70;;;;;;5082657;28;20044;-37
2021/08/07 09:25:42;;;;;;;3.10;1.83;;;23.80;64.70;;;;;;5076466;28;20033;-37
2021/08/07 09:28:08;;;;;;;2.42;2.00;;;23.80;64.80;;;;;;5062611;28;20069;-38
2021/08/07 09:30:36;;;;;;;1.97;1.80;;;23.80;64.70;;;;;;5062602;28;20025;-37
2021/08/07 09:33:12;;;;;;;3.05;1.95;;;23.80;64.70;;;;;;5062768;28;20071;-38
2021/08/07 09:35:43;;;;;;;2.20;2.00;;;23.80;64.80;;;;;;5062591;28;20060;-37
2021/08/07 09:38:22;;;;;;;2.40;2.00;;;23.80;64.80;;;;;;5062830;28;20078;-37
2021/08/07 09:41:00;;;;;;;1.90;1.80;;;23.80;64.80;;;;;;5062619;28;20037;-37
2021/08/07 09:43:29;;;;;;;;;;;23.80;64.80;;;;;;5062813;28;20095;-37
2021/08/07 09:46:09;;;;;;;1.83;1.70;;;23.80;64.80;;;;;;5069830;28;19935;-37
2021/08/07 09:48:43;;;;;;;2.67;1.88;;;23.80;64.80;;;;;;5079087;28;20029;-37
2021/08/07 09:51:20;;;;;;;1.70;1.60;;;23.80;64.90;;;;;;5062532;28;20033;-37
2021/08/07 09:54:05;;;;;;;2.20;1.90;;;23.80;64.90;;;;;;5062406;28;20036;-37
2021/08/07 09:56:46;;;;;;;2.10;1.90;;;23.80;64.90;;;;;;5062249;28;20040;-37
2021/08/07 09:59:13;;;;;;;2.25;2.05;;;23.80;64.90;;;;;;5062326;28;20029;-37
2021/08/07 10:01:39;;;;;;;2.00;1.77;;;23.80;64.90;;;;;;5064640;28;20044;-37
2021/08/07 10:04:07;;;;;;;2.25;2.05;;;23.80;65.00;;;;;;5066547;28;20270;-37
2021/08/07 10:06:33;;;;;;;1.70;1.60;;;23.70;65.00;;;;;;5066393;28;20040;-38
2021/08/07 10:08:59;;;;;;;2.23;2.03;;;23.70;65.00;;;;;;5066197;28;20055;-37
2021/08/07 10:11:29;;;;;;;2.45;2.25;;;23.70;65.00;;;;;;5066116;28;20028;-37
2021/08/07 10:13:55;;;;;;;2.35;2.15;;;23.70;65.00;;;;;;5064927;28;20025;-37
2021/08/07 10:16:22;;;;;;;2.83;2.27;;;23.70;65.00;;;;;;5077228;28;20036;-37
2021/08/07 10:18:49;;;;;;;2.22;2.03;;;23.70;65.00;;;;;;5086344;28;20029;-37
2021/08/07 10:21:15;;;;;;;1.90;1.80;;;23.70;65.00;;;;;;5085770;28;20056;-37
2021/08/07 10:23:41;;;;;;;2.38;1.80;;;23.70;65.00;;;;;;5086292;28;20041;-38
2021/08/07 10:26:10;;;;;;;2.07;1.87;;;23.70;65.00;;;;;;5075003;28;20037;-37
2021/08/07 10:28:41;;;;;;;2.38;2.08;;;23.70;65.10;;;;;;5065845;28;20053;-37
2021/08/07 10:31:07;;;;;;;2.10;1.90;;;23.70;65.10;;;;;;5064363;28;20021;-37
2021/08/07 10:33:33;;;;;;;2.00;1.80;;;23.70;65.10;;;;;;5064607;28;20024;-37
2021/08/07 10:35:59;;;;;;;2.05;1.70;;;23.70;65.10;;;;;;5047813;28;20025;-37
2021/08/07 10:38:25;;;;;;;2.13;1.92;;;23.70;65.20;;;;;;5064305;28;20081;-37
2021/08/07 10:40:53;;;;;;;2.72;2.05;;;23.70;65.20;;;;;;5063956;28;20035;-37
2021/08/07 10:43:22;;;;;;;1.85;1.75;;;23.70;65.10;;;;;;5047811;28;20075;-37
2021/08/07 10:45:48;;;;;;;2.13;1.92;;;23.70;65.20;;;;;;5064224;28;20605;-37
2021/08/07 10:48:36;;;;;;;3.10;2.03;;;23.70;65.20;;;;;;5064288;28;20028;-38
2021/08/07 10:51:22;;;;;;;2.90;1.80;;;23.70;65.30;;;;;;5065301;28;20029;-37
2021/08/07 10:54:00;;;;;;;1.83;1.50;;;23.70;65.30;;;;;;5066633;28;20032;-38
2021/08/07 10:56:29;;;;;;;2.13;1.92;;;23.70;65.30;;;;;;5063917;28;20571;-37
2021/08/07 10:58:56;;;;;;;1.88;1.70;;;23.60;65.30;;;;;;5065509;28;20025;-37
2021/08/07 11:03:49;;;;;;;1.85;1.65;;;23.60;65.30;;;;;;5065376;28;20040;-38
2021/08/07 11:06:18;;;;;;;2.25;2.05;;;23.60;65.30;;;;;;5065318;28;20071;-37
2021/08/07 11:08:45;;;;;;;1.98;1.77;;;23.60;65.30;;;;;;5065296;28;20025;-38
2021/08/07 11:11:41;;;;;;;2.95;2.22;;;23.60;65.30;;;;;;5066146;28;20040;-37
2021/08/07 11:14:24;;;;;;;1.95;1.85;;;23.60;65.40;;;;;;5055221;28;20119;-38
2021/08/07 11:17:05;;;;;;;2.20;2.00;;;23.60;65.40;;;;;;5065456;28;20064;-37
2021/08/07 11:19:56;;;;;;;2.03;1.83;;;23.60;65.40;;;;;;5083397;28;20036;-37
2021/08/07 11:22:37;;;;;;;2.20;1.88;;;23.60;65.40;;;;;;5084783;28;20108;-38
2021/08/07 11:25:11;;;;;;;2.17;1.98;;;23.60;65.40;;;;;;5082892;28;20020;-37
2021/08/07 11:27:48;;;;;;;2.30;2.10;;;23.60;65.50;;;;;;5063434;28;20104;-41
2021/08/07 11:30:30;;;;;;;2.40;2.20;;;23.60;65.50;;;;;;5064626;28;20037;-37
2021/08/07 11:32:56;;;;;;;2.50;2.30;;;23.60;65.50;;;;;;5064697;28;20045;-37
2021/08/07 11:35:35;;;;;;;2.30;1.83;;;23.60;65.60;;;;;;5064710;28;20024;-37
2021/08/07 11:38:10;;;;;;;1.67;1.58;;;23.60;65.60;;;;;;5064722;28;20036;-37
2021/08/07 11:40:38;;;;;;;2.30;2.10;;;23.60;65.60;;;;;;5064179;28;20036;-37
2021/08/07 11:43:04;;;;;;;3.10;2.00;;;23.50;65.60;;;;;;5064511;28;20044;-37
2021/08/07 11:45:30;;;;;;;2.40;1.90;;;23.50;65.60;;;;;;5063166;28;20029;-37
2021/08/07 11:47:57;;;;;;;2.05;1.85;;;23.50;65.70;;;;;;5063118;28;20382;-36
2021/08/07 11:50:24;;;;;;;2.33;2.13;;;23.50;65.60;;;;;;5064150;28;20037;-37
2021/08/07 11:52:50;;;;;;;2.20;2.00;;;23.50;65.70;;;;;;5064358;28;20029;-37
2021/08/07 11:55:17;;;;;;;2.30;1.90;;;23.50;65.70;;;;;;5060563;28;20157;-37
2021/08/07 11:57:43;;;;;;;2.35;1.85;;;23.50;65.70;;;;;;5044221;28;20737;-37
2021/08/07 12:00:26;;;;;;;1.92;1.83;;;23.50;65.70;;;;;;5044219;28;20038;-37
2021/08/07 12:03:18;;;;;;;2.28;2.08;;;23.50;65.70;;;;;;5042812;28;20057;-37
2021/08/07 12:05:54;;;;;;;2.20;2.00;;;23.50;65.70;;;;;;5043673;28;20410;-37
2021/08/07 12:08:20;;;;;;;1.98;1.88;;;23.50;65.70;;;;;;5044114;28;20026;-37
2021/08/07 12:10:48;;;;;;;2.13;1.92;;;23.50;65.70;;;;;;5043697;28;20030;-37
2021/08/07 12:13:19;;;;;;;2.20;2.00;;;23.50;65.70;;;;;;5044031;28;20021;-37
2021/08/07 12:15:55;;;;;;;2.00;1.83;;;23.50;65.80;;;;;;5050142;28;20029;-37
2021/08/07 12:18:21;;;;;;;4.28;2.00;;;23.50;65.70;;;;;;5063656;28;20036;-38
2021/08/07 12:20:48;;;;;;;2.22;2.03;;;23.50;65.80;;;;;;5063292;28;20056;-37
2021/08/07 12:23:14;;;;;;;1.70;1.60;;;23.50;65.80;;;;;;5062461;28;20025;-37
2021/08/07 12:25:43;;;;;;;2.40;2.00;;;23.50;65.70;;;;;;5069298;28;20312;-37
2021/08/07 12:28:16;;;;;;;2.47;2.10;;;23.50;65.80;;;;;;5083527;28;20031;-37
2021/08/07 12:31:02;;;;;;;2.40;2.00;;;23.50;65.80;;;;;;5083568;28;20150;-37
2021/08/07 12:33:41;;;;;;;2.15;1.80;;;23.50;65.80;;;;;;5083502;28;20054;-37
2021/08/07 12:36:17;;;;;;;2.10;1.90;;;23.50;65.80;;;;;;5083445;28;20055;-38
2021/08/07 12:38:45;;;;;;;2.08;1.88;;;23.40;65.70;;;;;;5083320;28;20035;-37
2021/08/07 12:41:13;;;;;;;2.05;1.85;;;23.40;65.80;;;;;;5083290;28;20104;-37
2021/08/07 12:43:39;;;;;;;2.10;1.90;;;23.40;65.80;;;;;;5083059;28;20021;-37
2021/08/07 12:46:07;;;;;;;1.98;1.83;;;23.40;65.80;;;;;;5083495;28;20089;-37
2021/08/07 12:48:59;;;;;;;1.90;1.70;;;23.40;65.80;;;;;;5083231;28;20695;-37
2021/08/07 12:51:30;;;;;;;2.15;1.95;;;23.40;65.80;;;;;;5078933;28;20021;-37
2021/08/07 12:53:58;;;;;;;2.30;2.10;;;23.50;65.80;;;;;;5041961;28;20048;-37
2021/08/07 12:56:25;;;;;;;2.05;1.80;;;23.50;65.70;;;;;;5064996;28;20036;-37